LFRSLFRN

Guest
Details From LFRS - Nantes Atlantique
To LFRN - Rennes St Jacques
Flight Number -
Tags Generated
Created
Modified
Stats Distance 55 nm / 102 km
Max Altitude 0 ft / 0 m
Waypoints 2
Social Downloads 0
Likes 0
Share VATSIM

Download

Looking for another format? Having issues loading an existing format? Contact us
Advertisement - Login to hide

Notes

Generated

Route

LFRS LFRN

ID Type Via Altitude Latitude Longitude Leg Dist Tot Dist Heading (true) Name
O LFRS APT - 0 ft / 0 m 47.16048˚ -1.61493˚ - 0 nm - Nantes_Atlantique
O LFRN APT - 0 ft / 0 m 48.06992˚ -1.74050˚ 54 nm 54 nm 355° / 355° -

Altitude Profile

Advertisement - Login to hide

LFRS

Details ICAO LFRS (NTE)
Name Nantes_Atlantique
Region France
Timezone Europe/Paris (UTC+1.0)
Stats Elevation 89 ft / 27 m (AMSL)
Location 47.156040° -1.611186°
Runways 2
Magnetic Variation 0.509° W

METAR

LFRS 180700Z AUTO 29009KT 4100 -DZ BR OVC004 11/11 Q1025 NOSIG

Decode

TAF

TAF LFRS 180500Z 1806/1912 27010KT 9999 BKN007 TEMPO 1806/1810 3000 -RADZ BKN003 BECMG 1810/1812 36010KT BKN020 PROB30 TEMPO 1905/1912 BKN010

Decode

Departure Runways

ID Width Length Bearing (true) Bearing (mag) Surface Threshold Offset Overrun Length
03 148 ft / 45 m 9,526 ft / 2,903 m 27.35° 27.86° Asphalt 0 ft / 0 m 0 ft / 0 m
13 100 ft / 30 m 1,999 ft / 609 m 125.55° 126.06° Concrete 0 ft / 0 m 0 ft / 0 m
21 148 ft / 45 m 9,526 ft / 2,903 m 207.37° 207.88° Asphalt 689 ft / 210 m 0 ft / 0 m
31 100 ft / 30 m 1,999 ft / 609 m 305.56° 306.07° Concrete 0 ft / 0 m 0 ft / 0 m

LFRN

Details ICAO LFRN (RNS)
Name Rennes St Jacques
Region France
Timezone Europe/Paris (UTC+1.0)
Stats Elevation 124 ft / 38 m (AMSL)
Location 48.069410° -1.734587°
Runways 2
Magnetic Variation 0.632° W

METAR

LFRN 180700Z AUTO 29007KT 6000 OVC004 11/10 Q1025 TEMPO 2500 DZ BR BECMG 01010KT BKN020

Decode

TAF

TAF LFRN 180500Z 1806/1906 28010KT 9999 OVC008 TEMPO 1806/1808 2500 DZ BR BKN002 BECMG 1808/1810 01010KT BKN020 BECMG 1817/1819 VRB03KT BECMG 1821/1824 0700 BCFG BECMG 1901/1903 0500 FG VV/// TEMPO 1903/1906 0200 FG

Decode

Destination Runways

ID Width Length Bearing (true) Bearing (mag) Surface Threshold Offset Overrun Length
10 148 ft / 45 m 6,895 ft / 2,102 m 100.76° 101.39° Asphalt 230 ft / 70 m 0 ft / 0 m
14 98 ft / 30 m 2,785 ft / 849 m 142.19° 142.82° Asphalt 0 ft / 0 m 0 ft / 0 m
28 148 ft / 45 m 6,895 ft / 2,102 m 280.78° 281.41° Asphalt 0 ft / 0 m 0 ft / 0 m
32 98 ft / 30 m 2,785 ft / 849 m 322.20° 322.83° Asphalt 0 ft / 0 m 0 ft / 0 m

Approach Navaids

Runway Type Ident Frequency Range Bearing (true) Bearing (mag) Slope Elevation
28 Localiser RS 110.10 MHz 18 nm / 33 km 280.72° 281.35° - 124 ft / 38 m (AMSL)
28 Glidescope RS 110.10 MHz 10 nm / 19 km 280.77° 281.40° 3.00° 124 ft / 38 m (AMSL)
28 DME RS 110.10 MHz 18 nm / 33 km - - - 174 ft / 53 m (AMSL)

Popular Alternatives